Stations météo

réclame
Mon MeteoGroup
Norrkoping/Kungsangen, Suède (2571): Température de l'air & dewpoint: 11.02.2019 13:00:00 - 17.02.2019 13:00:00 (CET)Norrkoping/Kungsangen, Suède (2571): Vitesse du vent: 11.02.2019 13:00:00 - 17.02.2019 13:00:00 (CET)Norrkoping/Kungsangen, Suède (2571): Direction du vent: 11.02.2019 13:00:00 - 17.02.2019 13:00:00 (CET)Norrkoping/Kungsangen, Suède (2571): visibility: 11.02.2019 13:00:00 - 17.02.2019 13:00:00 (CET)
Date & Time tt [°C] td [°C] ff [km/h] ff [knt] dd vv [km]
17.02.2019 13:00:00 4,0 0,0 5 3 ESE 10
17.02.2019 12:00:00 4,0 -1,0 8 4 E 10
17.02.2019 11:00:00 4,0 -1,0 5 3 E 10
17.02.2019 10:00:00 3,0 1,0 0 0 N 10
17.02.2019 09:00:00 3,0 1,0 0 0 N 10
17.02.2019 08:00:00 2,0 1,0 2 1 ENE 10
17.02.2019 07:00:00 3,0 1,0 0 0 N 10
17.02.2019 06:00:00 4,0 1,0 4 2 - 10
17.02.2019 05:00:00 4,0 2,0 8 4 NNW 10
17.02.2019 04:00:00 5,0 3,0 8 4 NW 10
17.02.2019 03:00:00 5,0 4,0 9 5 WNW 10
17.02.2019 02:00:00 5,0 4,0 11 6 W 10
17.02.2019 01:00:00 6,0 4,0 9 5 WNW 10
17.02.2019 00:00:00 6,0 5,0 16 9 WNW 10
16.02.2019 23:00:00 6,0 5,0 18 10 W 10
16.02.2019 22:00:00 7,0 5,0 21 11 W 9
16.02.2019 21:00:00 7,0 5,0 28 15 W 10
16.02.2019 20:00:00 7,0 4,0 18 10 W 10
16.02.2019 19:00:00 8,0 4,0 22 12 W 10
16.02.2019 18:00:00 8,0 3,0 37 20 W 10
16.02.2019 17:00:00 9,0 3,0 31 17 WSW 10
16.02.2019 16:00:00 9,0 3,0 35 19 WSW 10
16.02.2019 15:00:00 10,0 2,0 39 21 WSW 10
16.02.2019 14:00:00 11,0 0,0 29 16 W 10
16.02.2019 13:00:00 12,0 0,0 24 13 WSW 10
16.02.2019 12:00:00 10,0 1,0 24 13 WSW 10
16.02.2019 11:00:00 9,0 0,0 24 13 WSW 10
16.02.2019 10:00:00 7,0 0,0 21 11 WSW 10
16.02.2019 09:00:00 6,0 -1,0 15 8 WSW 10
16.02.2019 08:00:00 4,0 -2,0 15 8 WSW 10
16.02.2019 07:00:00 3,0 -2,0 15 8 WSW 10
16.02.2019 06:00:00 3,0 -2,0 13 7 WSW 10
16.02.2019 05:00:00 5,0 -2,0 18 10 WSW 10
16.02.2019 04:00:00 5,0 -2,0 18 10 WSW 10
16.02.2019 03:00:00 4,0 -1,0 13 7 WSW 10
16.02.2019 02:00:00 4,0 -1,0 15 8 WSW 10
16.02.2019 01:00:00 4,0 0,0 18 10 WSW 10
16.02.2019 00:00:00 5,0 0,0 22 12 WSW 10
15.02.2019 23:00:00 5,0 0,0 28 15 WSW 10
15.02.2019 22:00:00 5,0 0,0 16 9 WSW 10
15.02.2019 21:00:00 5,0 0,0 21 11 WSW 10
15.02.2019 20:00:00 6,0 0,0 21 11 W 10
15.02.2019 19:00:00 5,0 0,0 13 7 W 10
15.02.2019 18:00:00 6,0 1,0 16 9 W 10
15.02.2019 17:00:00 7,0 2,0 18 10 WSW 10
15.02.2019 16:00:00 7,0 3,0 24 13 WSW 10
15.02.2019 15:00:00 8,0 5,0 22 12 WSW 10
15.02.2019 14:00:00 9,0 5,0 22 12 W 10
15.02.2019 13:00:00 8,0 6,0 21 11 W 10
15.02.2019 12:00:00 8,0 6,0 22 12 W 10
15.02.2019 11:00:00 7,0 6,0 26 14 W 10
15.02.2019 10:00:00 6,0 5,0 22 12 W 10
15.02.2019 09:00:00 6,0 5,0 16 9 W 10
15.02.2019 08:00:00 6,0 5,0 21 11 WSW 10
15.02.2019 07:00:00 6,0 5,0 22 12 WSW 10
15.02.2019 06:00:00 6,0 5,0 21 11 W 10
15.02.2019 05:00:00 6,0 5,0 26 14 W 10
15.02.2019 04:00:00 6,0 5,0 22 12 W 10
15.02.2019 03:00:00 5,0 4,0 21 11 W 10
15.02.2019 02:00:00 6,0 4,0 22 12 W 10
15.02.2019 01:00:00 6,0 4,0 18 10 W 10
15.02.2019 00:00:00 6,0 4,0 21 11 W 10
14.02.2019 23:00:00 6,0 4,0 22 12 W 10
14.02.2019 22:00:00 6,0 4,0 28 15 W 10
14.02.2019 21:00:00 6,0 4,0 35 19 W 10
14.02.2019 20:00:00 7,0 4,0 37 20 W 10
14.02.2019 19:00:00 7,0 4,0 37 20 W 10
14.02.2019 18:00:00 7,0 4,0 34 18 W 10
14.02.2019 17:00:00 8,0 5,0 37 20 W 10
14.02.2019 16:00:00 8,0 5,0 37 20 W 10
14.02.2019 15:00:00 8,0 5,0 37 20 W 10
14.02.2019 14:00:00 8,0 5,0 31 17 W 10
14.02.2019 13:00:00 8,0 5,0 37 20 W 10
14.02.2019 12:00:00 7,0 5,0 31 17 WSW 10
14.02.2019 11:00:00 7,0 5,0 26 14 WSW 10
14.02.2019 10:00:00 6,0 5,0 22 12 WSW 10
14.02.2019 09:00:00 5,0 5,0 16 9 WSW 10
14.02.2019 08:00:00 5,0 4,0 18 10 WSW 10
14.02.2019 07:00:00 5,0 4,0 18 10 W 10
14.02.2019 06:00:00 4,0 3,0 18 10 WSW 8
14.02.2019 05:00:00 3,0 2,0 18 10 W 10
14.02.2019 04:00:00 2,0 1,0 15 8 W 10
14.02.2019 03:00:00 1,0 0,0 15 8 W 10
14.02.2019 02:00:00 2,0 0,0 15 8 W 10
14.02.2019 01:00:00 1,0 -1,0 5 3 WSW 10
14.02.2019 00:00:00 1,0 -2,0 8 4 WSW 10
13.02.2019 23:00:00 1,0 -1,0 13 7 W 10
13.02.2019 22:00:00 4,0 -1,0 16 9 WNW 10
13.02.2019 21:00:00 5,0 -1,0 18 10 WNW 10
13.02.2019 20:00:00 5,0 -1,0 18 10 W 10
13.02.2019 19:00:00 5,0 -1,0 22 12 W 10
13.02.2019 18:00:00 6,0 0,0 21 11 W 10
13.02.2019 17:00:00 6,0 0,0 18 10 W 10
13.02.2019 16:00:00 8,0 1,0 24 13 W 10
13.02.2019 15:00:00 8,0 2,0 24 13 W 10
13.02.2019 14:00:00 8,0 2,0 26 14 WSW 10
13.02.2019 13:00:00 9,0 3,0 26 14 W 10
13.02.2019 12:00:00 8,0 2,0 24 13 WSW 10
13.02.2019 11:00:00 7,0 3,0 24 13 W 10
13.02.2019 10:00:00 6,0 3,0 22 12 W 10
13.02.2019 09:00:00 5,0 2,0 24 13 W 10
13.02.2019 08:00:00 5,0 3,0 34 18 W 10
13.02.2019 07:00:00 6,0 3,0 39 21 W 10
13.02.2019 06:00:00 6,0 4,0 31 17 W 10
13.02.2019 05:00:00 5,0 4,0 26 14 WSW 10
13.02.2019 04:00:00 4,0 3,0 34 18 WSW 10
13.02.2019 03:00:00 3,0 2,0 31 17 W 10
13.02.2019 02:00:00 2,0 1,0 21 11 WSW 10
13.02.2019 01:00:00 1,0 1,0 21 11 SW 10
13.02.2019 00:00:00 0,0 0,0 16 9 SW 2,9
12.02.2019 23:00:00 1,0 -1,0 18 10 SW 3,5
12.02.2019 22:00:00 1,0 -1,0 11 6 SW 10
12.02.2019 21:00:00 1,0 -3,0 15 8 WSW 10
12.02.2019 20:00:00 0,0 -5,0 13 7 WSW 10
12.02.2019 19:00:00 0,0 -5,0 13 7 WSW 10
12.02.2019 18:00:00 0,0 -5,0 13 7 W 10
12.02.2019 17:00:00 0,0 -6,0 13 7 WSW 10
12.02.2019 16:00:00 2,0 -7,0 21 11 W 10
12.02.2019 15:00:00 3,0 -7,0 24 13 W 10
12.02.2019 14:00:00 2,0 -6,0 26 14 WNW 10
12.02.2019 13:00:00 2,0 -6,0 22 12 W 10
12.02.2019 12:00:00 1,0 -6,0 18 10 W 10
12.02.2019 11:00:00 0,0 -6,0 24 13 W 10
12.02.2019 10:00:00 -1,0 -6,0 24 13 WNW 10
12.02.2019 09:00:00 -2,0 -6,0 21 11 WNW 10
12.02.2019 08:00:00 -3,0 -6,0 22 12 WNW 10
12.02.2019 07:00:00 -3,0 -6,0 16 9 WNW 10
12.02.2019 06:00:00 -2,0 -5,0 18 10 WNW 10
12.02.2019 05:00:00 -2,0 -5,0 16 9 NW 10
12.02.2019 04:00:00 -2,0 -5,0 18 10 NW 10
12.02.2019 03:00:00 -3,0 -5,0 15 8 W 10
12.02.2019 02:00:00 -3,0 -5,0 13 7 W 10
12.02.2019 01:00:00 -3,0 -5,0 13 7 W 10
12.02.2019 00:00:00 -2,0 -5,0 15 8 W 10
11.02.2019 23:00:00 -2,0 -5,0 16 9 W 10
11.02.2019 22:00:00 -2,0 -5,0 15 8 WNW 10
11.02.2019 21:00:00 -1,0 -5,0 18 10 WNW 10
11.02.2019 20:00:00 0,0 -5,0 21 11 WNW 10
11.02.2019 19:00:00 0,0 -5,0 21 11 WNW 10
11.02.2019 18:00:00 1,0 -5,0 22 12 WNW 10
11.02.2019 17:00:00 2,0 -4,0 21 11 WNW 10
11.02.2019 16:00:00 3,0 -3,0 24 13 NW 10
11.02.2019 15:00:00 3,0 -3,0 28 15 NW 10
11.02.2019 14:00:00 3,0 -2,0 28 15 NNW 10
11.02.2019 13:00:00 2,0 -1,0 24 13 NNW 10

tt = Température de l'air
td = dewpoint
ff = Vitesse du vent
dd = Direction du vent
vv = visibility

stations d'obs. à proximité